sensor_id;sensor_type;location;lat;lon;timestamp;P1;durP1;ratioP1;P2;durP2;ratioP2
11287;SDS011;5700;50.996;7.044;2023-03-16T00:00:17;7.15;;;3.40;;
11287;SDS011;5700;50.996;7.044;2023-03-16T00:03:19;6.65;;;3.38;;
11287;SDS011;5700;50.996;7.044;2023-03-16T00:06:22;6.47;;;2.95;;
11287;SDS011;5700;50.996;7.044;2023-03-16T00:09:23;8.48;;;3.25;;
11287;SDS011;5700;50.996;7.044;2023-03-16T00:12:29;11.13;;;3.05;;
11287;SDS011;5700;50.996;7.044;2023-03-16T00:15:33;3.88;;;2.30;;
11287;SDS011;5700;50.996;7.044;2023-03-16T00:18:35;6.30;;;2.78;;
11287;SDS011;5700;50.996;7.044;2023-03-16T00:21:39;7.22;;;2.83;;
11287;SDS011;5700;50.996;7.044;2023-03-16T00:24:41;4.97;;;2.67;;
11287;SDS011;5700;50.996;7.044;2023-03-16T00:27:43;5.43;;;2.75;;
11287;SDS011;5700;50.996;7.044;2023-03-16T00:30:44;5.55;;;2.58;;
11287;SDS011;5700;50.996;7.044;2023-03-16T00:33:47;5.47;;;2.60;;
11287;SDS011;5700;50.996;7.044;2023-03-16T00:36:50;5.93;;;2.90;;
11287;SDS011;5700;50.996;7.044;2023-03-16T00:39:51;3.80;;;2.75;;
11287;SDS011;5700;50.996;7.044;2023-03-16T00:42:55;6.38;;;3.00;;
11287;SDS011;5700;50.996;7.044;2023-03-16T00:45:57;7.10;;;2.58;;
11287;SDS011;5700;50.996;7.044;2023-03-16T00:49:00;8.02;;;3.40;;
11287;SDS011;5700;50.996;7.044;2023-03-16T00:52:05;5.75;;;3.03;;
11287;SDS011;5700;50.996;7.044;2023-03-16T00:55:07;6.68;;;2.80;;
11287;SDS011;5700;50.996;7.044;2023-03-16T00:58:09;5.50;;;2.75;;
11287;SDS011;5700;50.996;7.044;2023-03-16T01:01:14;8.30;;;3.63;;
11287;SDS011;5700;50.996;7.044;2023-03-16T01:04:17;7.82;;;3.00;;
11287;SDS011;5700;50.996;7.044;2023-03-16T01:07:20;10.85;;;2.90;;
11287;SDS011;5700;50.996;7.044;2023-03-16T01:10:22;6.60;;;2.78;;
11287;SDS011;5700;50.996;7.044;2023-03-16T01:13:23;7.38;;;3.10;;
11287;SDS011;5700;50.996;7.044;2023-03-16T01:16:25;6.00;;;2.50;;
11287;SDS011;5700;50.996;7.044;2023-03-16T01:19:27;9.05;;;3.38;;
11287;SDS011;5700;50.996;7.044;2023-03-16T01:22:30;5.45;;;2.20;;
11287;SDS011;5700;50.996;7.044;2023-03-16T01:25:32;5.50;;;2.80;;
11287;SDS011;5700;50.996;7.044;2023-03-16T01:28:34;6.15;;;2.80;;
11287;SDS011;5700;50.996;7.044;2023-03-16T01:31:35;6.75;;;3.03;;
11287;SDS011;5700;50.996;7.044;2023-03-16T01:34:36;10.15;;;3.60;;
11287;SDS011;5700;50.996;7.044;2023-03-16T01:37:39;13.05;;;2.90;;
11287;SDS011;5700;50.996;7.044;2023-03-16T01:40:41;10.45;;;2.95;;
11287;SDS011;5700;50.996;7.044;2023-03-16T01:43:42;9.35;;;3.35;;
11287;SDS011;5700;50.996;7.044;2023-03-16T01:46:44;8.27;;;3.22;;
11287;SDS011;5700;50.996;7.044;2023-03-16T01:49:45;7.22;;;2.78;;
11287;SDS011;5700;50.996;7.044;2023-03-16T01:52:48;7.57;;;3.40;;
11287;SDS011;5700;50.996;7.044;2023-03-16T01:55:51;7.45;;;2.95;;
11287;SDS011;5700;50.996;7.044;2023-03-16T01:58:55;6.63;;;2.72;;
11287;SDS011;5700;50.996;7.044;2023-03-16T02:01:58;5.43;;;2.58;;
11287;SDS011;5700;50.996;7.044;2023-03-16T02:05:00;3.78;;;2.22;;
11287;SDS011;5700;50.996;7.044;2023-03-16T02:08:04;4.82;;;2.13;;
11287;SDS011;5700;50.996;7.044;2023-03-16T02:11:06;7.60;;;2.30;;
11287;SDS011;5700;50.996;7.044;2023-03-16T02:14:09;6.38;;;2.85;;
11287;SDS011;5700;50.996;7.044;2023-03-16T02:17:11;7.00;;;2.60;;
11287;SDS011;5700;50.996;7.044;2023-03-16T02:20:16;9.45;;;2.95;;
11287;SDS011;5700;50.996;7.044;2023-03-16T02:23:25;3.55;;;1.90;;
11287;SDS011;5700;50.996;7.044;2023-03-16T02:26:28;4.72;;;1.90;;
11287;SDS011;5700;50.996;7.044;2023-03-16T02:29:43;4.30;;;2.05;;
11287;SDS011;5700;50.996;7.044;2023-03-16T02:32:51;4.25;;;2.00;;
11287;SDS011;5700;50.996;7.044;2023-03-16T02:35:54;7.40;;;2.55;;
11287;SDS011;5700;50.996;7.044;2023-03-16T02:38:55;4.35;;;2.22;;
11287;SDS011;5700;50.996;7.044;2023-03-16T02:41:57;4.82;;;1.80;;
11287;SDS011;5700;50.996;7.044;2023-03-16T02:44:59;6.97;;;2.10;;
11287;SDS011;5700;50.996;7.044;2023-03-16T02:48:01;6.00;;;2.42;;
11287;SDS011;5700;50.996;7.044;2023-03-16T02:51:04;3.47;;;2.08;;
11287;SDS011;5700;50.996;7.044;2023-03-16T02:54:05;6.25;;;2.00;;
11287;SDS011;5700;50.996;7.044;2023-03-16T02:57:07;3.35;;;1.92;;
11287;SDS011;5700;50.996;7.044;2023-03-16T03:00:10;5.53;;;2.67;;
11287;SDS011;5700;50.996;7.044;2023-03-16T03:03:15;5.82;;;2.10;;
11287;SDS011;5700;50.996;7.044;2023-03-16T03:06:17;4.30;;;1.77;;
11287;SDS011;5700;50.996;7.044;2023-03-16T03:09:19;2.80;;;1.50;;
11287;SDS011;5700;50.996;7.044;2023-03-16T03:12:20;5.68;;;1.80;;
11287;SDS011;5700;50.996;7.044;2023-03-16T03:15:23;4.32;;;2.03;;
11287;SDS011;5700;50.996;7.044;2023-03-16T03:18:25;7.95;;;2.65;;
11287;SDS011;5700;50.996;7.044;2023-03-16T03:21:26;3.35;;;1.63;;
11287;SDS011;5700;50.996;7.044;2023-03-16T03:24:28;4.63;;;2.00;;
11287;SDS011;5700;50.996;7.044;2023-03-16T03:27:30;4.28;;;1.88;;
11287;SDS011;5700;50.996;7.044;2023-03-16T03:30:33;8.23;;;2.67;;
11287;SDS011;5700;50.996;7.044;2023-03-16T03:33:36;3.65;;;1.98;;
11287;SDS011;5700;50.996;7.044;2023-03-16T03:36:37;5.38;;;2.20;;
11287;SDS011;5700;50.996;7.044;2023-03-16T03:39:38;4.82;;;2.03;;
11287;SDS011;5700;50.996;7.044;2023-03-16T03:42:40;5.53;;;2.10;;
11287;SDS011;5700;50.996;7.044;2023-03-16T03:45:43;4.07;;;2.00;;
11287;SDS011;5700;50.996;7.044;2023-03-16T03:48:45;3.40;;;2.00;;
11287;SDS011;5700;50.996;7.044;2023-03-16T03:51:46;5.35;;;2.45;;
11287;SDS011;5700;50.996;7.044;2023-03-16T03:54:48;5.82;;;2.25;;
11287;SDS011;5700;50.996;7.044;2023-03-16T03:57:49;5.13;;;1.90;;
11287;SDS011;5700;50.996;7.044;2023-03-16T04:00:52;5.97;;;2.20;;
11287;SDS011;5700;50.996;7.044;2023-03-16T04:03:53;3.92;;;1.80;;
11287;SDS011;5700;50.996;7.044;2023-03-16T04:06:54;4.32;;;1.73;;
11287;SDS011;5700;50.996;7.044;2023-03-16T04:09:56;5.03;;;1.90;;
11287;SDS011;5700;50.996;7.044;2023-03-16T04:12:57;4.28;;;2.10;;
11287;SDS011;5700;50.996;7.044;2023-03-16T04:16:00;6.35;;;2.58;;
11287;SDS011;5700;50.996;7.044;2023-03-16T04:19:02;4.50;;;1.90;;
11287;SDS011;5700;50.996;7.044;2023-03-16T04:22:04;4.57;;;2.20;;
11287;SDS011;5700;50.996;7.044;2023-03-16T04:25:06;3.90;;;1.75;;
11287;SDS011;5700;50.996;7.044;2023-03-16T04:28:08;4.90;;;2.17;;
11287;SDS011;5700;50.996;7.044;2023-03-16T04:31:11;5.47;;;2.13;;
11287;SDS011;5700;50.996;7.044;2023-03-16T04:34:12;5.85;;;2.22;;
11287;SDS011;5700;50.996;7.044;2023-03-16T04:37:14;7.68;;;2.03;;
11287;SDS011;5700;50.996;7.044;2023-03-16T04:40:15;5.05;;;2.03;;
11287;SDS011;5700;50.996;7.044;2023-03-16T04:43:18;6.60;;;2.65;;
11287;SDS011;5700;50.996;7.044;2023-03-16T04:46:21;4.15;;;2.08;;
11287;SDS011;5700;50.996;7.044;2023-03-16T04:49:22;4.53;;;2.00;;
11287;SDS011;5700;50.996;7.044;2023-03-16T04:52:23;5.28;;;2.60;;
11287;SDS011;5700;50.996;7.044;2023-03-16T04:55:25;4.38;;;2.40;;
11287;SDS011;5700;50.996;7.044;2023-03-16T04:58:26;6.93;;;2.50;;
11287;SDS011;5700;50.996;7.044;2023-03-16T05:01:29;5.45;;;2.30;;
11287;SDS011;5700;50.996;7.044;2023-03-16T05:04:31;6.47;;;2.80;;
11287;SDS011;5700;50.996;7.044;2023-03-16T05:07:33;8.00;;;3.20;;
11287;SDS011;5700;50.996;7.044;2023-03-16T05:10:34;6.53;;;2.30;;
11287;SDS011;5700;50.996;7.044;2023-03-16T05:13:36;6.53;;;2.85;;
11287;SDS011;5700;50.996;7.044;2023-03-16T05:16:39;10.68;;;2.92;;
11287;SDS011;5700;50.996;7.044;2023-03-16T05:19:40;4.70;;;2.35;;
11287;SDS011;5700;50.996;7.044;2023-03-16T05:22:42;5.72;;;2.83;;
11287;SDS011;5700;50.996;7.044;2023-03-16T05:25:45;6.18;;;3.25;;
11287;SDS011;5700;50.996;7.044;2023-03-16T05:28:46;5.35;;;3.22;;
11287;SDS011;5700;50.996;7.044;2023-03-16T05:31:49;9.27;;;3.42;;
11287;SDS011;5700;50.996;7.044;2023-03-16T05:34:51;6.10;;;3.45;;
11287;SDS011;5700;50.996;7.044;2023-03-16T05:37:53;9.25;;;3.17;;
11287;SDS011;5700;50.996;7.044;2023-03-16T05:40:54;7.35;;;2.53;;
11287;SDS011;5700;50.996;7.044;2023-03-16T05:44:00;8.23;;;3.08;;
11287;SDS011;5700;50.996;7.044;2023-03-16T05:47:03;8.40;;;2.67;;
11287;SDS011;5700;50.996;7.044;2023-03-16T05:50:04;5.63;;;2.72;;
11287;SDS011;5700;50.996;7.044;2023-03-16T05:53:08;6.28;;;2.63;;
11287;SDS011;5700;50.996;7.044;2023-03-16T05:56:09;4.88;;;2.38;;
11287;SDS011;5700;50.996;7.044;2023-03-16T05:59:10;7.03;;;2.53;;
11287;SDS011;5700;50.996;7.044;2023-03-16T06:02:13;7.82;;;2.85;;
11287;SDS011;5700;50.996;7.044;2023-03-16T06:05:15;6.63;;;2.67;;
11287;SDS011;5700;50.996;7.044;2023-03-16T06:08:16;4.90;;;2.60;;
11287;SDS011;5700;50.996;7.044;2023-03-16T06:11:18;7.05;;;2.97;;
11287;SDS011;5700;50.996;7.044;2023-03-16T06:14:20;5.57;;;2.80;;
11287;SDS011;5700;50.996;7.044;2023-03-16T06:17:23;5.43;;;2.42;;
11287;SDS011;5700;50.996;7.044;2023-03-16T06:20:24;6.75;;;2.20;;
11287;SDS011;5700;50.996;7.044;2023-03-16T06:23:26;4.90;;;2.00;;
11287;SDS011;5700;50.996;7.044;2023-03-16T06:26:27;4.57;;;2.13;;
11287;SDS011;5700;50.996;7.044;2023-03-16T06:29:29;5.97;;;2.53;;
11287;SDS011;5700;50.996;7.044;2023-03-16T06:32:31;5.15;;;2.30;;
11287;SDS011;5700;50.996;7.044;2023-03-16T06:35:33;6.93;;;2.78;;
11287;SDS011;5700;50.996;7.044;2023-03-16T06:38:34;5.90;;;2.30;;
11287;SDS011;5700;50.996;7.044;2023-03-16T06:41:36;5.20;;;2.80;;
11287;SDS011;5700;50.996;7.044;2023-03-16T06:44:37;6.32;;;2.47;;
11287;SDS011;5700;50.996;7.044;2023-03-16T06:47:40;6.57;;;3.00;;
11287;SDS011;5700;50.996;7.044;2023-03-16T06:50:43;4.93;;;2.15;;
11287;SDS011;5700;50.996;7.044;2023-03-16T06:53:45;6.60;;;2.33;;
11287;SDS011;5700;50.996;7.044;2023-03-16T06:56:46;6.60;;;2.60;;
11287;SDS011;5700;50.996;7.044;2023-03-16T06:59:47;6.68;;;2.78;;
11287;SDS011;5700;50.996;7.044;2023-03-16T07:02:51;6.60;;;2.58;;
11287;SDS011;5700;50.996;7.044;2023-03-16T07:05:52;7.05;;;2.50;;
11287;SDS011;5700;50.996;7.044;2023-03-16T07:08:54;5.15;;;2.90;;
11287;SDS011;5700;50.996;7.044;2023-03-16T07:11:55;6.80;;;2.70;;
11287;SDS011;5700;50.996;7.044;2023-03-16T07:14:57;5.47;;;2.55;;
11287;SDS011;5700;50.996;7.044;2023-03-16T07:17:59;5.68;;;2.15;;
11287;SDS011;5700;50.996;7.044;2023-03-16T07:21:01;9.18;;;2.90;;
11287;SDS011;5700;50.996;7.044;2023-03-16T07:24:03;5.50;;;2.72;;
11287;SDS011;5700;50.996;7.044;2023-03-16T07:27:04;5.38;;;2.70;;
11287;SDS011;5700;50.996;7.044;2023-03-16T07:30:06;10.00;;;3.05;;
11287;SDS011;5700;50.996;7.044;2023-03-16T07:33:12;6.43;;;2.90;;
11287;SDS011;5700;50.996;7.044;2023-03-16T07:36:14;5.85;;;2.80;;
11287;SDS011;5700;50.996;7.044;2023-03-16T07:39:15;9.43;;;2.92;;
11287;SDS011;5700;50.996;7.044;2023-03-16T07:42:16;6.55;;;2.80;;
11287;SDS011;5700;50.996;7.044;2023-03-16T07:45:18;7.88;;;3.30;;
11287;SDS011;5700;50.996;7.044;2023-03-16T07:48:21;7.25;;;3.17;;
11287;SDS011;5700;50.996;7.044;2023-03-16T07:51:23;5.10;;;2.65;;
11287;SDS011;5700;50.996;7.044;2023-03-16T07:54:24;7.50;;;3.28;;
11287;SDS011;5700;50.996;7.044;2023-03-16T07:57:26;8.00;;;3.13;;
11287;SDS011;5700;50.996;7.044;2023-03-16T08:00:27;7.53;;;3.10;;
11287;SDS011;5700;50.996;7.044;2023-03-16T08:03:30;6.38;;;3.05;;
11287;SDS011;5700;50.996;7.044;2023-03-16T08:06:31;5.70;;;2.72;;
11287;SDS011;5700;50.996;7.044;2023-03-16T08:09:33;8.52;;;3.05;;
11287;SDS011;5700;50.996;7.044;2023-03-16T08:12:34;7.25;;;3.42;;
11287;SDS011;5700;50.996;7.044;2023-03-16T08:15:36;6.63;;;3.17;;
11287;SDS011;5700;50.996;7.044;2023-03-16T08:18:38;7.13;;;2.72;;
11287;SDS011;5700;50.996;7.044;2023-03-16T08:21:40;7.07;;;3.20;;
11287;SDS011;5700;50.996;7.044;2023-03-16T08:24:42;6.70;;;3.13;;
11287;SDS011;5700;50.996;7.044;2023-03-16T08:27:44;5.63;;;2.83;;
11287;SDS011;5700;50.996;7.044;2023-03-16T08:30:47;8.13;;;2.72;;
11287;SDS011;5700;50.996;7.044;2023-03-16T08:33:51;5.63;;;2.88;;
11287;SDS011;5700;50.996;7.044;2023-03-16T08:36:52;7.97;;;2.92;;
11287;SDS011;5700;50.996;7.044;2023-03-16T08:39:54;5.32;;;2.60;;
11287;SDS011;5700;50.996;7.044;2023-03-16T08:42:55;6.13;;;3.10;;
11287;SDS011;5700;50.996;7.044;2023-03-16T08:45:57;6.78;;;3.47;;
11287;SDS011;5700;50.996;7.044;2023-03-16T08:49:00;6.82;;;3.78;;
11287;SDS011;5700;50.996;7.044;2023-03-16T08:52:01;6.88;;;3.00;;
11287;SDS011;5700;50.996;7.044;2023-03-16T08:55:04;6.90;;;2.95;;
11287;SDS011;5700;50.996;7.044;2023-03-16T08:58:08;5.95;;;2.95;;
11287;SDS011;5700;50.996;7.044;2023-03-16T09:01:12;5.57;;;3.10;;
11287;SDS011;5700;50.996;7.044;2023-03-16T09:04:15;6.68;;;3.10;;
11287;SDS011;5700;50.996;7.044;2023-03-16T09:07:17;6.05;;;3.15;;
11287;SDS011;5700;50.996;7.044;2023-03-16T09:10:19;5.60;;;3.25;;
11287;SDS011;5700;50.996;7.044;2023-03-16T09:13:22;9.35;;;3.55;;
11287;SDS011;5700;50.996;7.044;2023-03-16T09:16:23;5.95;;;2.70;;
11287;SDS011;5700;50.996;7.044;2023-03-16T09:19:27;5.07;;;2.78;;
11287;SDS011;5700;50.996;7.044;2023-03-16T09:22:28;7.00;;;3.35;;
11287;SDS011;5700;50.996;7.044;2023-03-16T09:25:29;7.43;;;3.42;;
11287;SDS011;5700;50.996;7.044;2023-03-16T09:28:31;8.82;;;3.55;;
11287;SDS011;5700;50.996;7.044;2023-03-16T09:31:33;7.68;;;3.20;;
11287;SDS011;5700;50.996;7.044;2023-03-16T09:34:36;4.68;;;2.75;;
11287;SDS011;5700;50.996;7.044;2023-03-16T09:37:38;6.43;;;3.05;;
11287;SDS011;5700;50.996;7.044;2023-03-16T09:40:39;6.68;;;3.60;;
11287;SDS011;5700;50.996;7.044;2023-03-16T09:43:50;6.55;;;3.00;;
11287;SDS011;5700;50.996;7.044;2023-03-16T09:46:58;5.88;;;2.60;;
11287;SDS011;5700;50.996;7.044;2023-03-16T09:50:03;6.18;;;2.95;;
11287;SDS011;5700;50.996;7.044;2023-03-16T09:53:07;4.55;;;2.30;;
11287;SDS011;5700;50.996;7.044;2023-03-16T09:56:17;5.85;;;2.30;;
11287;SDS011;5700;50.996;7.044;2023-03-16T09:59:22;4.03;;;2.03;;
11287;SDS011;5700;50.996;7.044;2023-03-16T10:05:51;6.20;;;1.73;;
11287;SDS011;5700;50.996;7.044;2023-03-16T10:08:58;3.72;;;2.00;;
11287;SDS011;5700;50.996;7.044;2023-03-16T10:12:04;3.42;;;1.98;;
11287;SDS011;5700;50.996;7.044;2023-03-16T10:15:08;4.47;;;2.15;;
11287;SDS011;5700;50.996;7.044;2023-03-16T10:18:13;6.60;;;2.25;;
11287;SDS011;5700;50.996;7.044;2023-03-16T10:21:17;3.63;;;2.10;;
11287;SDS011;5700;50.996;7.044;2023-03-16T10:24:23;2.90;;;1.80;;
11287;SDS011;5700;50.996;7.044;2023-03-16T10:27:35;3.45;;;1.90;;
11287;SDS011;5700;50.996;7.044;2023-03-16T10:30:38;3.13;;;1.85;;
11287;SDS011;5700;50.996;7.044;2023-03-16T10:33:41;3.08;;;1.70;;
11287;SDS011;5700;50.996;7.044;2023-03-16T10:36:44;3.97;;;1.67;;
11287;SDS011;5700;50.996;7.044;2023-03-16T10:39:46;2.78;;;1.83;;
11287;SDS011;5700;50.996;7.044;2023-03-16T10:42:48;3.03;;;1.60;;
11287;SDS011;5700;50.996;7.044;2023-03-16T10:45:50;2.35;;;1.48;;
11287;SDS011;5700;50.996;7.044;2023-03-16T10:48:52;3.72;;;1.50;;
11287;SDS011;5700;50.996;7.044;2023-03-16T10:52:03;1.67;;;1.17;;
11287;SDS011;5700;50.996;7.044;2023-03-16T10:55:09;2.38;;;1.60;;
11287;SDS011;5700;50.996;7.044;2023-03-16T10:58:21;3.17;;;1.60;;
11287;SDS011;5700;50.996;7.044;2023-03-16T11:01:24;5.13;;;1.95;;
11287;SDS011;5700;50.996;7.044;2023-03-16T11:04:29;3.83;;;2.08;;
11287;SDS011;5700;50.996;7.044;2023-03-16T11:07:33;3.40;;;1.80;;
11287;SDS011;5700;50.996;7.044;2023-03-16T11:10:36;4.45;;;2.00;;
11287;SDS011;5700;50.996;7.044;2023-03-16T11:13:38;3.67;;;1.67;;
11287;SDS011;5700;50.996;7.044;2023-03-16T11:16:45;4.63;;;1.75;;
11287;SDS011;5700;50.996;7.044;2023-03-16T11:19:51;3.30;;;1.73;;
11287;SDS011;5700;50.996;7.044;2023-03-16T11:22:55;3.72;;;1.98;;
11287;SDS011;5700;50.996;7.044;2023-03-16T11:25:57;3.08;;;1.70;;
11287;SDS011;5700;50.996;7.044;2023-03-16T11:29:03;3.85;;;1.83;;
11287;SDS011;5700;50.996;7.044;2023-03-16T11:32:09;4.75;;;2.13;;
11287;SDS011;5700;50.996;7.044;2023-03-16T11:35:14;2.00;;;1.15;;
11287;SDS011;5700;50.996;7.044;2023-03-16T11:38:18;3.88;;;1.55;;
11287;SDS011;5700;50.996;7.044;2023-03-16T11:41:24;3.55;;;1.58;;
11287;SDS011;5700;50.996;7.044;2023-03-16T11:44:31;3.80;;;1.80;;
11287;SDS011;5700;50.996;7.044;2023-03-16T11:47:44;3.13;;;1.50;;
11287;SDS011;5700;50.996;7.044;2023-03-16T11:50:57;2.22;;;1.40;;
11287;SDS011;5700;50.996;7.044;2023-03-16T11:54:10;2.55;;;1.40;;
11287;SDS011;5700;50.996;7.044;2023-03-16T11:57:29;3.38;;;1.33;;
11287;SDS011;5700;50.996;7.044;2023-03-16T12:00:39;2.20;;;1.25;;
11287;SDS011;5700;50.996;7.044;2023-03-16T12:07:11;3.30;;;1.40;;
11287;SDS011;5700;50.996;7.044;2023-03-16T12:10:23;3.10;;;1.48;;
11287;SDS011;5700;50.996;7.044;2023-03-16T12:13:29;1.40;;;1.15;;
11287;SDS011;5700;50.996;7.044;2023-03-16T12:16:37;1.92;;;1.20;;
11287;SDS011;5700;50.996;7.044;2023-03-16T12:19:42;2.80;;;1.23;;
11287;SDS011;5700;50.996;7.044;2023-03-16T12:22:49;4.38;;;1.60;;
11287;SDS011;5700;50.996;7.044;2023-03-16T12:25:54;4.47;;;1.38;;
11287;SDS011;5700;50.996;7.044;2023-03-16T12:28:58;3.05;;;1.27;;
11287;SDS011;5700;50.996;7.044;2023-03-16T12:32:08;2.38;;;1.20;;
11287;SDS011;5700;50.996;7.044;2023-03-16T12:35:16;2.72;;;1.30;;
11287;SDS011;5700;50.996;7.044;2023-03-16T12:38:30;2.67;;;1.10;;
11287;SDS011;5700;50.996;7.044;2023-03-16T12:41:40;3.60;;;1.20;;
11287;SDS011;5700;50.996;7.044;2023-03-16T12:44:50;6.38;;;1.60;;
11287;SDS011;5700;50.996;7.044;2023-03-16T12:47:57;4.45;;;1.10;;
11287;SDS011;5700;50.996;7.044;2023-03-16T12:51:05;2.72;;;1.67;;
11287;SDS011;5700;50.996;7.044;2023-03-16T12:54:16;2.63;;;1.13;;
11287;SDS011;5700;50.996;7.044;2023-03-16T12:57:22;2.45;;;1.15;;
11287;SDS011;5700;50.996;7.044;2023-03-16T13:00:31;2.50;;;1.38;;
11287;SDS011;5700;50.996;7.044;2023-03-16T13:03:34;2.45;;;1.08;;
11287;SDS011;5700;50.996;7.044;2023-03-16T13:06:36;2.17;;;1.05;;
11287;SDS011;5700;50.996;7.044;2023-03-16T13:09:39;1.73;;;1.10;;
11287;SDS011;5700;50.996;7.044;2023-03-16T13:12:45;3.08;;;1.10;;
11287;SDS011;5700;50.996;7.044;2023-03-16T13:15:47;2.30;;;1.15;;
11287;SDS011;5700;50.996;7.044;2023-03-16T13:18:57;1.80;;;0.85;;
11287;SDS011;5700;50.996;7.044;2023-03-16T13:22:01;3.85;;;1.17;;
11287;SDS011;5700;50.996;7.044;2023-03-16T13:25:11;2.58;;;1.40;;
11287;SDS011;5700;50.996;7.044;2023-03-16T13:28:18;1.98;;;1.20;;
11287;SDS011;5700;50.996;7.044;2023-03-16T13:31:22;3.50;;;1.05;;
11287;SDS011;5700;50.996;7.044;2023-03-16T13:34:26;1.48;;;0.93;;
11287;SDS011;5700;50.996;7.044;2023-03-16T13:37:29;4.95;;;1.48;;
11287;SDS011;5700;50.996;7.044;2023-03-16T13:40:31;2.28;;;1.27;;
11287;SDS011;5700;50.996;7.044;2023-03-16T13:43:37;1.98;;;1.10;;
11287;SDS011;5700;50.996;7.044;2023-03-16T13:46:39;3.05;;;1.50;;
11287;SDS011;5700;50.996;7.044;2023-03-16T13:49:42;4.13;;;1.00;;
11287;SDS011;5700;50.996;7.044;2023-03-16T13:52:49;5.47;;;1.05;;
11287;SDS011;5700;50.996;7.044;2023-03-16T13:55:53;1.40;;;1.00;;
11287;SDS011;5700;50.996;7.044;2023-03-16T13:58:56;2.67;;;1.02;;
11287;SDS011;5700;50.996;7.044;2023-03-16T14:01:59;3.47;;;1.15;;
11287;SDS011;5700;50.996;7.044;2023-03-16T14:05:08;3.13;;;0.93;;
11287;SDS011;5700;50.996;7.044;2023-03-16T14:08:14;3.42;;;1.15;;
11287;SDS011;5700;50.996;7.044;2023-03-16T14:11:16;4.07;;;1.20;;
11287;SDS011;5700;50.996;7.044;2023-03-16T14:14:22;2.45;;;1.20;;
11287;SDS011;5700;50.996;7.044;2023-03-16T14:17:25;2.92;;;0.90;;
11287;SDS011;5700;50.996;7.044;2023-03-16T14:20:28;1.80;;;1.10;;
11287;SDS011;5700;50.996;7.044;2023-03-16T14:23:31;1.83;;;1.05;;
11287;SDS011;5700;50.996;7.044;2023-03-16T14:26:38;2.65;;;1.25;;
11287;SDS011;5700;50.996;7.044;2023-03-16T14:29:42;1.33;;;1.00;;
11287;SDS011;5700;50.996;7.044;2023-03-16T14:32:53;2.00;;;1.33;;
11287;SDS011;5700;50.996;7.044;2023-03-16T14:35:56;1.65;;;1.00;;
11287;SDS011;5700;50.996;7.044;2023-03-16T14:39:07;2.67;;;1.30;;
11287;SDS011;5700;50.996;7.044;2023-03-16T14:42:13;5.00;;;1.38;;
11287;SDS011;5700;50.996;7.044;2023-03-16T14:45:16;1.73;;;1.02;;
11287;SDS011;5700;50.996;7.044;2023-03-16T14:48:19;3.17;;;1.40;;
11287;SDS011;5700;50.996;7.044;2023-03-16T14:51:20;1.77;;;0.90;;
11287;SDS011;5700;50.996;7.044;2023-03-16T14:54:22;2.92;;;1.10;;
11287;SDS011;5700;50.996;7.044;2023-03-16T14:57:25;1.92;;;1.13;;
11287;SDS011;5700;50.996;7.044;2023-03-16T15:00:28;4.45;;;1.33;;
11287;SDS011;5700;50.996;7.044;2023-03-16T15:03:31;2.78;;;1.17;;
11287;SDS011;5700;50.996;7.044;2023-03-16T15:06:34;4.18;;;1.02;;
11287;SDS011;5700;50.996;7.044;2023-03-16T15:09:36;3.60;;;1.20;;
11287;SDS011;5700;50.996;7.044;2023-03-16T15:12:39;2.15;;;1.10;;
11287;SDS011;5700;50.996;7.044;2023-03-16T15:15:44;2.95;;;1.10;;
11287;SDS011;5700;50.996;7.044;2023-03-16T15:18:47;1.70;;;1.13;;
11287;SDS011;5700;50.996;7.044;2023-03-16T15:21:48;2.17;;;1.30;;
11287;SDS011;5700;50.996;7.044;2023-03-16T15:24:50;3.15;;;1.10;;
11287;SDS011;5700;50.996;7.044;2023-03-16T15:27:52;1.45;;;1.10;;
11287;SDS011;5700;50.996;7.044;2023-03-16T15:30:56;2.55;;;1.00;;
11287;SDS011;5700;50.996;7.044;2023-03-16T15:33:58;1.58;;;1.27;;
11287;SDS011;5700;50.996;7.044;2023-03-16T15:36:59;2.67;;;1.35;;
11287;SDS011;5700;50.996;7.044;2023-03-16T15:40:01;2.30;;;1.30;;
11287;SDS011;5700;50.996;7.044;2023-03-16T15:43:02;2.65;;;1.52;;
11287;SDS011;5700;50.996;7.044;2023-03-16T15:46:05;1.20;;;1.08;;
11287;SDS011;5700;50.996;7.044;2023-03-16T15:49:06;2.58;;;1.30;;
11287;SDS011;5700;50.996;7.044;2023-03-16T15:52:09;3.85;;;1.50;;
11287;SDS011;5700;50.996;7.044;2023-03-16T15:55:22;2.15;;;1.20;;
11287;SDS011;5700;50.996;7.044;2023-03-16T15:58:26;2.72;;;1.30;;
11287;SDS011;5700;50.996;7.044;2023-03-16T16:01:29;2.17;;;1.30;;
11287;SDS011;5700;50.996;7.044;2023-03-16T16:04:33;3.70;;;1.33;;
11287;SDS011;5700;50.996;7.044;2023-03-16T16:07:35;2.28;;;1.60;;
11287;SDS011;5700;50.996;7.044;2023-03-16T16:10:36;2.97;;;1.52;;
11287;SDS011;5700;50.996;7.044;2023-03-16T16:13:38;2.88;;;1.40;;
11287;SDS011;5700;50.996;7.044;2023-03-16T16:16:41;1.90;;;1.42;;
11287;SDS011;5700;50.996;7.044;2023-03-16T16:19:44;1.77;;;1.23;;
11287;SDS011;5700;50.996;7.044;2023-03-16T16:22:47;3.25;;;1.10;;
11287;SDS011;5700;50.996;7.044;2023-03-16T16:25:49;1.92;;;1.30;;
11287;SDS011;5700;50.996;7.044;2023-03-16T16:28:52;1.48;;;1.25;;
11287;SDS011;5700;50.996;7.044;2023-03-16T16:31:55;2.80;;;1.45;;
11287;SDS011;5700;50.996;7.044;2023-03-16T16:34:56;3.08;;;1.70;;
11287;SDS011;5700;50.996;7.044;2023-03-16T16:37:58;6.43;;;1.42;;
11287;SDS011;5700;50.996;7.044;2023-03-16T16:41:00;4.40;;;1.50;;
11287;SDS011;5700;50.996;7.044;2023-03-16T16:44:02;1.27;;;1.17;;
11287;SDS011;5700;50.996;7.044;2023-03-16T16:47:10;3.85;;;1.65;;
11287;SDS011;5700;50.996;7.044;2023-03-16T16:50:19;3.97;;;1.55;;
11287;SDS011;5700;50.996;7.044;2023-03-16T16:53:21;2.85;;;1.30;;
11287;SDS011;5700;50.996;7.044;2023-03-16T16:56:24;2.42;;;1.40;;
11287;SDS011;5700;50.996;7.044;2023-03-16T16:59:28;3.47;;;1.55;;
11287;SDS011;5700;50.996;7.044;2023-03-16T17:02:41;4.68;;;1.73;;
11287;SDS011;5700;50.996;7.044;2023-03-16T17:05:44;2.92;;;1.98;;
11287;SDS011;5700;50.996;7.044;2023-03-16T17:08:46;2.80;;;1.77;;
11287;SDS011;5700;50.996;7.044;2023-03-16T17:11:49;5.07;;;1.45;;
11287;SDS011;5700;50.996;7.044;2023-03-16T17:14:50;4.18;;;1.90;;
11287;SDS011;5700;50.996;7.044;2023-03-16T17:17:56;3.53;;;1.50;;
11287;SDS011;5700;50.996;7.044;2023-03-16T17:20:59;3.35;;;1.52;;
11287;SDS011;5700;50.996;7.044;2023-03-16T17:24:01;6.10;;;1.77;;
11287;SDS011;5700;50.996;7.044;2023-03-16T17:27:03;4.30;;;1.88;;
11287;SDS011;5700;50.996;7.044;2023-03-16T17:30:05;3.17;;;1.80;;
11287;SDS011;5700;50.996;7.044;2023-03-16T17:33:15;5.85;;;3.00;;
11287;SDS011;5700;50.996;7.044;2023-03-16T17:36:18;3.75;;;1.73;;
11287;SDS011;5700;50.996;7.044;2023-03-16T17:39:22;3.35;;;1.92;;
11287;SDS011;5700;50.996;7.044;2023-03-16T17:42:24;5.55;;;3.17;;
11287;SDS011;5700;50.996;7.044;2023-03-16T17:45:26;3.17;;;1.60;;
11287;SDS011;5700;50.996;7.044;2023-03-16T17:48:29;4.07;;;1.83;;
11287;SDS011;5700;50.996;7.044;2023-03-16T17:51:31;3.33;;;1.35;;
11287;SDS011;5700;50.996;7.044;2023-03-16T17:54:32;2.92;;;1.48;;
11287;SDS011;5700;50.996;7.044;2023-03-16T17:57:33;8.23;;;1.75;;
11287;SDS011;5700;50.996;7.044;2023-03-16T18:00:35;3.20;;;1.83;;
11287;SDS011;5700;50.996;7.044;2023-03-16T18:03:39;3.13;;;1.42;;
11287;SDS011;5700;50.996;7.044;2023-03-16T18:06:43;3.53;;;1.98;;
11287;SDS011;5700;50.996;7.044;2023-03-16T18:09:46;2.67;;;1.45;;
11287;SDS011;5700;50.996;7.044;2023-03-16T18:12:50;2.08;;;1.17;;
11287;SDS011;5700;50.996;7.044;2023-03-16T18:15:55;5.10;;;1.98;;
11287;SDS011;5700;50.996;7.044;2023-03-16T18:18:59;2.55;;;1.50;;
11287;SDS011;5700;50.996;7.044;2023-03-16T18:22:05;3.60;;;1.73;;
11287;SDS011;5700;50.996;7.044;2023-03-16T18:25:16;1.67;;;1.17;;
11287;SDS011;5700;50.996;7.044;2023-03-16T18:28:27;2.30;;;1.27;;
11287;SDS011;5700;50.996;7.044;2023-03-16T18:31:29;3.03;;;1.20;;
11287;SDS011;5700;50.996;7.044;2023-03-16T18:34:32;1.77;;;1.02;;
11287;SDS011;5700;50.996;7.044;2023-03-16T18:37:34;3.38;;;1.40;;
11287;SDS011;5700;50.996;7.044;2023-03-16T18:40:35;3.45;;;1.45;;
11287;SDS011;5700;50.996;7.044;2023-03-16T18:43:37;4.47;;;1.33;;
11287;SDS011;5700;50.996;7.044;2023-03-16T18:46:39;3.65;;;1.63;;